Time;durP1;ratioP1;P1;durP2;ratioP2;P2;SDS_P1;SDS_P2;PMS_P1;PMS_P2;Temp;Humidity;BMP_temperature;BMP_pressure;BME280_temperature;BME280_humidity;BME280_pressure;Samples;Min_cycle;Max_cycle;Signal;HPM_P1;HPM_P2
2022/10/10 00:01:08;;;;;;;5.27;4.27;;;8.80;34.00;;;;;;5016931;28;20433;-81
2022/10/10 00:03:35;;;;;;;6.57;3.27;;;8.80;1.00;;;;;;5024442;28;20483;-81
2022/10/10 00:06:02;;;;;;;5.80;3.30;;;8.90;1.00;;;;;;5024278;28;20467;-80
2022/10/10 00:08:28;;;;;;;11.13;3.27;;;8.90;99.90;;;;;;5017052;28;20426;-80
2022/10/10 00:10:55;;;;;;;3.37;2.83;;;8.90;99.90;;;;;;5016844;28;20447;-80
2022/10/10 00:13:23;;;;;;;3.63;2.60;;;8.90;99.90;;;;;;5016487;28;20942;-80
2022/10/10 00:15:50;;;;;;;5.33;4.47;;;8.90;99.90;;;;;;5026859;28;20470;-80
2022/10/10 00:18:17;;;;;;;6.00;3.90;;;8.90;99.90;;;;;;5039218;28;20487;-81
2022/10/10 00:20:43;;;;;;;5.90;4.30;;;8.80;99.90;;;;;;5039570;28;20415;-80
2022/10/10 00:23:10;;;;;;;6.27;3.90;;;8.80;99.90;;;;;;5039732;28;20410;-81
2022/10/10 00:25:37;;;;;;;4.87;3.30;;;8.80;99.90;;;;;;5034610;28;20494;-80
2022/10/10 00:28:05;;;;;;;7.00;3.83;;;8.70;1.00;;;;;;5018113;28;20509;-80
2022/10/10 00:30:33;;;;;;;4.10;2.97;;;8.70;1.00;;;;;;5019205;28;20422;-80
2022/10/10 00:33:00;;;;;;;8.33;3.60;;;8.80;1.00;;;;;;5023768;28;20934;-81
2022/10/10 00:35:28;;;;;;;6.53;3.40;;;8.80;99.90;;;;;;5024593;28;20463;-80
2022/10/10 00:37:55;;;;;;;5.60;3.40;;;8.80;99.90;;;;;;5025173;28;20505;-80
2022/10/10 00:40:22;;;;;;;5.00;2.97;;;8.80;99.90;;;;;;5024601;28;20938;-80
2022/10/10 00:42:49;;;;;;;3.60;3.07;;;8.80;99.90;;;;;;5024372;28;20803;-80
2022/10/10 00:45:26;;;;;;;3.20;2.90;;;8.80;99.90;;;;;;5024615;28;20494;-80
2022/10/10 00:47:58;;;;;;;5.43;3.70;;;8.80;99.90;;;;;;5024311;28;20432;-80
2022/10/10 00:50:26;;;;;;;5.50;3.60;;;8.80;99.90;;;;;;5025117;28;20931;-80
2022/10/10 00:52:53;;;;;;;4.97;4.20;;;8.80;99.90;;;;;;5023891;28;20476;-80
2022/10/10 00:55:21;;;;;;;8.23;3.90;;;8.80;99.90;;;;;;5024700;28;20472;-80
2022/10/10 00:57:48;;;;;;;5.93;3.47;;;8.80;1.00;;;;;;5023974;28;20488;-80
2022/10/10 01:00:15;;;;;;;4.53;3.00;;;8.70;99.90;;;;;;5019806;28;20419;-79
2022/10/10 01:02:42;;;;;;;5.67;3.50;;;8.60;99.90;;;;;;5016630;28;20501;-79
2022/10/10 01:05:10;;;;;;;4.50;3.60;;;8.70;1.00;;;;;;5016291;28;20504;-79
2022/10/10 01:07:38;;;;;;;6.80;3.47;;;8.60;1.00;;;;;;5016599;28;20422;-80
2022/10/10 01:10:08;;;;;;;3.90;3.00;;;8.60;1.00;;;;;;5015987;28;20462;-80
2022/10/10 01:12:47;;;;;;;6.50;3.27;;;8.50;1.00;;;;;;5016374;28;20458;-81
2022/10/10 01:15:20;;;;;;;5.20;3.60;;;8.80;1.00;;;;;;5015934;28;20458;-81
2022/10/10 01:17:52;;;;;;;10.07;3.40;;;8.60;1.00;;;;;;5015563;28;20838;-79
2022/10/10 01:20:40;;;;;;;5.17;3.33;;;8.70;99.90;;;;;;5015442;28;20414;-80
2022/10/10 01:23:40;;;;;;;5.23;3.20;;;8.70;99.90;;;;;;5016841;28;20578;-79
2022/10/10 01:26:24;;;;;;;4.83;3.80;;;8.60;1.00;;;;;;5019791;28;20652;-79
2022/10/10 01:28:56;;;;;;;7.20;3.67;;;8.60;99.90;;;;;;5016268;28;20486;-79
2022/10/10 01:31:25;;;;;;;8.00;3.30;;;8.60;99.90;;;;;;5015673;28;20431;-80
2022/10/10 01:34:03;;;;;;;5.67;3.73;;;8.60;99.90;;;;;;5016574;28;20211;-79
2022/10/10 01:36:38;;;;;;;4.53;3.47;;;8.60;99.90;;;;;;5017059;28;20521;-79
2022/10/10 01:39:13;;;;;;;4.10;3.10;;;8.50;1.00;;;;;;5017378;28;20409;-78
2022/10/10 01:41:48;;;;;;;6.33;3.40;;;8.50;1.00;;;;;;5017634;28;20431;-78
2022/10/10 01:44:16;;;;;;;3.47;2.90;;;8.40;1.00;;;;;;5017126;28;20540;-78
2022/10/10 01:46:43;;;;;;;2.80;2.60;;;8.20;1.00;;;;;;5014975;28;20449;-78
2022/10/10 01:49:09;;;;;;;3.87;3.37;;;8.30;11.40;;;;;;5015187;28;20422;-78
2022/10/10 01:51:54;;;;;;;6.70;3.00;;;8.30;40.00;;;;;;5015277;28;20463;-78
2022/10/10 01:54:35;;;;;;;6.30;3.40;;;8.20;99.90;;;;;;5015585;28;20435;-78
2022/10/10 01:57:16;;;;;;;7.80;3.53;;;8.20;99.90;;;;;;5015288;28;20503;-80
2022/10/10 01:59:58;;;;;;;6.20;3.65;;;8.20;99.90;;;;;;5014782;28;20415;-79
2022/10/10 02:02:34;;;;;;;5.90;3.70;;;8.10;99.90;;;;;;5015006;28;20197;-79
2022/10/10 02:05:07;;;;;;;4.90;3.40;;;8.10;99.90;;;;;;5015532;28;20517;-78
2022/10/10 02:07:40;;;;;;;4.37;3.30;;;8.10;99.90;;;;;;5015108;28;20849;-78
2022/10/10 02:10:08;;;;;;;3.30;3.00;;;8.10;99.90;;;;;;5018395;28;20435;-78
2022/10/10 02:12:36;;;;;;;4.70;3.10;;;8.10;99.90;;;;;;5018968;28;20426;-79
2022/10/10 02:15:09;;;;;;;6.75;3.95;;;8.10;99.90;;;;;;5019273;28;20417;-79
2022/10/10 02:17:38;;;;;;;8.47;3.73;;;8.00;99.90;;;;;;5018694;28;20647;-78
2022/10/10 02:20:07;;;;;;;5.03;3.10;;;8.00;99.90;;;;;;5018752;28;20482;-79
2022/10/10 02:22:35;;;;;;;5.37;4.10;;;8.00;99.90;;;;;;5018369;28;20426;-79
2022/10/10 02:25:02;;;;;;;5.87;3.80;;;7.90;99.90;;;;;;5018560;28;20483;-79
2022/10/10 02:27:36;;;;;;;8.50;3.80;;;8.00;99.90;;;;;;5022928;28;20414;-79
2022/10/10 02:30:05;;;;;;;4.33;3.77;;;7.90;99.90;;;;;;5023558;28;20431;-79
2022/10/10 02:32:38;;;;;;;5.93;4.00;;;7.90;99.90;;;;;;5018959;28;20538;-79
2022/10/10 02:35:09;;;;;;;3.97;3.53;;;7.80;99.90;;;;;;5018922;28;20461;-79
2022/10/10 02:37:37;;;;;;;5.90;3.60;;;7.80;99.90;;;;;;5017779;28;20765;-78
2022/10/10 02:40:08;;;;;;;5.63;3.90;;;7.80;99.90;;;;;;5017758;28;20464;-78
2022/10/10 02:42:36;;;;;;;8.40;4.53;;;7.80;99.90;;;;;;5017820;28;20794;-78
2022/10/10 02:45:05;;;;;;;13.40;7.97;;;8.10;99.90;;;;;;5017628;28;20462;-78
2022/10/10 02:47:32;;;;;;;7.77;3.77;;;7.80;99.90;;;;;;5017485;28;20433;-78
2022/10/10 02:49:59;;;;;;;5.47;4.15;;;7.80;99.90;;;;;;5017474;28;20929;-78
2022/10/10 02:52:25;;;;;;;8.90;3.63;;;7.80;99.90;;;;;;5019137;28;20212;-78
2022/10/10 02:54:52;;;;;;;4.20;3.80;;;7.90;99.90;;;;;;5017772;28;20953;-78
2022/10/10 02:57:19;;;;;;;4.20;3.63;;;7.80;99.90;;;;;;5017663;28;20444;-78
2022/10/10 02:59:46;;;;;;;5.43;3.38;;;7.90;99.90;;;;;;5017936;28;20840;-78
2022/10/10 03:02:14;;;;;;;5.17;3.60;;;7.90;99.90;;;;;;5017755;28;20208;-78
2022/10/10 03:04:41;;;;;;;4.63;3.97;;;7.80;99.90;;;;;;5017338;28;21072;-78
2022/10/10 03:07:07;;;;;;;4.10;3.70;;;7.80;99.90;;;;;;5017376;28;20231;-78
2022/10/10 03:09:34;;;;;;;7.45;4.82;;;7.70;99.90;;;;;;5019114;28;20211;-78
2022/10/10 03:12:01;;;;;;;8.80;4.40;;;7.80;99.90;;;;;;5021551;28;20302;-78
2022/10/10 03:14:28;;;;;;;4.10;3.80;;;7.90;99.90;;;;;;5020402;28;20450;-78
2022/10/10 03:16:54;;;;;;;9.88;4.25;;;7.80;99.90;;;;;;5018942;28;20468;-78
2022/10/10 03:19:22;;;;;;;5.68;4.30;;;7.80;99.90;;;;;;5018369;28;20205;-78
2022/10/10 03:21:49;;;;;;;6.20;4.07;;;7.80;99.90;;;;;;5017853;28;20588;-78
2022/10/10 03:24:16;;;;;;;4.95;4.07;;;7.80;99.90;;;;;;5017441;28;20455;-78
2022/10/10 03:26:42;;;;;;;4.38;3.95;;;7.80;99.90;;;;;;5016947;28;20228;-78
2022/10/10 03:29:09;;;;;;;7.80;4.50;;;7.80;99.90;;;;;;5016601;28;20204;-78
2022/10/10 03:31:36;;;;;;;5.13;4.03;;;7.80;99.90;;;;;;5018730;28;20968;-78
2022/10/10 03:34:02;;;;;;;7.70;4.80;;;7.80;99.90;;;;;;5038956;28;20191;-78
2022/10/10 03:36:30;;;;;;;5.97;4.18;;;7.80;99.90;;;;;;5040385;28;20223;-78
2022/10/10 03:38:57;;;;;;;7.45;3.38;;;7.70;99.90;;;;;;5040145;28;20254;-78
2022/10/10 03:41:24;;;;;;;8.37;4.23;;;7.70;99.90;;;;;;5039708;28;20192;-78
2022/10/10 03:43:50;;;;;;;5.53;4.32;;;7.60;99.90;;;;;;5022135;28;20987;-80
2022/10/10 03:46:17;;;;;;;7.53;4.53;;;7.60;99.90;;;;;;5017465;28;20228;-79
2022/10/10 03:48:44;;;;;;;8.85;4.85;;;7.60;99.90;;;;;;5017547;28;20217;-79
2022/10/10 03:51:11;;;;;;;8.07;5.85;;;7.50;99.90;;;;;;5017222;28;20208;-79
2022/10/10 03:53:39;;;;;;;5.65;3.65;;;7.50;99.90;;;;;;5017328;28;20616;-79
2022/10/10 03:56:06;;;;;;;5.93;4.47;;;7.60;99.90;;;;;;5016600;28;20227;-79
2022/10/10 03:58:32;;;;;;;4.18;3.80;;;7.60;99.90;;;;;;5016820;28;20208;-79
2022/10/10 04:01:01;;;;;;;11.05;4.72;;;7.60;99.90;;;;;;5017316;28;20211;-79
2022/10/10 04:03:29;;;;;;;6.20;4.40;;;7.60;99.90;;;;;;5024138;28;20240;-79
2022/10/10 04:05:56;;;;;;;7.57;3.83;;;7.50;99.90;;;;;;5025752;28;20232;-78
2022/10/10 04:08:23;;;;;;;7.68;4.05;;;7.60;99.90;;;;;;5025281;28;20258;-78
2022/10/10 04:10:52;;;;;;;6.45;4.20;;;7.50;99.90;;;;;;5016877;28;20220;-78
2022/10/10 04:13:20;;;;;;;6.35;4.35;;;7.50;99.90;;;;;;5016226;28;20208;-79
2022/10/10 04:15:50;;;;;;;10.90;3.83;;;7.40;99.90;;;;;;5017166;28;20694;-79
2022/10/10 04:18:17;;;;;;;4.65;4.07;;;7.20;99.90;;;;;;5016274;28;20644;-79
2022/10/10 04:20:43;;;;;;;5.22;4.18;;;7.40;99.90;;;;;;5016691;28;20212;-78
2022/10/10 04:23:10;;;;;;;8.35;4.55;;;7.40;99.90;;;;;;5024241;28;20208;-78
2022/10/10 04:25:37;;;;;;;8.05;4.18;;;7.40;99.90;;;;;;5024363;28;20235;-78
2022/10/10 04:28:05;;;;;;;7.38;4.97;;;7.40;99.90;;;;;;5022182;28;20555;-79
2022/10/10 04:30:34;;;;;;;6.07;4.45;;;7.40;99.90;;;;;;5023116;28;20235;-80
2022/10/10 04:33:01;;;;;;;4.20;3.63;;;7.50;99.90;;;;;;5019926;28;20214;-79
2022/10/10 04:35:27;;;;;;;7.00;4.60;;;7.60;99.90;;;;;;5022597;28;20228;-79
2022/10/10 04:37:54;;;;;;;8.02;4.28;;;7.60;99.90;;;;;;5018100;28;20207;-79
2022/10/10 04:40:21;;;;;;;12.70;4.55;;;7.60;99.90;;;;;;5016834;28;20262;-79
2022/10/10 04:42:47;;;;;;;5.30;3.75;;;7.50;99.90;;;;;;5015960;28;20219;-78
2022/10/10 04:45:15;;;;;;;7.30;3.93;;;7.50;99.90;;;;;;5015505;28;20238;-78
2022/10/10 04:47:42;;;;;;;9.25;5.13;;;7.60;99.90;;;;;;5015105;28;20462;-78
2022/10/10 04:50:09;;;;;;;8.77;4.40;;;7.50;99.90;;;;;;5018602;28;20211;-78
2022/10/10 04:52:35;;;;;;;6.25;3.60;;;7.40;99.90;;;;;;5021204;28;20212;-78
2022/10/10 04:55:02;;;;;;;5.95;5.00;;;7.00;99.90;;;;;;5017519;28;20756;-78
2022/10/10 04:57:29;;;;;;;5.30;4.80;;;7.30;99.90;;;;;;5016731;28;20215;-79
2022/10/10 04:59:56;;;;;;;6.43;5.05;;;7.30;99.90;;;;;;5015747;28;20609;-78
2022/10/10 05:02:24;;;;;;;8.10;4.43;;;7.30;99.90;;;;;;5014841;28;20208;-78
2022/10/10 05:04:50;;;;;;;9.30;4.28;;;7.30;99.90;;;;;;5016272;28;20269;-79
2022/10/10 05:07:17;;;;;;;6.03;4.53;;;7.30;99.90;;;;;;5015555;28;20286;-79
2022/10/10 05:09:44;;;;;;;6.35;4.30;;;7.40;99.90;;;;;;5015007;28;20265;-79
2022/10/10 05:12:10;;;;;;;4.20;3.80;;;7.30;99.90;;;;;;5015620;28;20208;-78
2022/10/10 05:14:37;;;;;;;10.20;4.47;;;7.40;99.90;;;;;;5014462;28;20572;-78
2022/10/10 05:17:04;;;;;;;7.20;4.93;;;7.40;99.90;;;;;;5015375;28;20231;-78
2022/10/10 05:19:32;;;;;;;7.57;4.55;;;7.40;99.90;;;;;;5017359;28;20609;-79
2022/10/10 05:21:58;;;;;;;6.75;4.30;;;7.50;99.90;;;;;;5016432;28;20210;-80
2022/10/10 05:24:25;;;;;;;8.13;4.97;;;7.50;99.90;;;;;;5017327;28;20210;-79
2022/10/10 05:26:52;;;;;;;4.85;3.90;;;7.50;99.90;;;;;;5017892;28;20234;-79
2022/10/10 05:29:19;;;;;;;7.63;4.40;;;7.40;99.90;;;;;;5016395;28;20265;-79
2022/10/10 05:31:45;;;;;;;5.57;5.00;;;7.40;99.90;;;;;;5016150;28;20207;-79
2022/10/10 05:34:13;;;;;;;8.55;5.18;;;7.30;99.90;;;;;;5019799;28;20690;-79
2022/10/10 05:36:42;;;;;;;6.07;5.03;;;7.20;99.90;;;;;;5021595;28;20227;-79
2022/10/10 05:39:09;;;;;;;8.77;5.40;;;7.20;99.90;;;;;;5022409;28;20222;-79
2022/10/10 05:41:36;;;;;;;5.13;4.50;;;7.20;99.90;;;;;;5022173;28;20204;-79
2022/10/10 05:44:03;;;;;;;6.78;5.13;;;7.20;99.90;;;;;;5018921;28;20203;-79
2022/10/10 05:46:30;;;;;;;13.23;5.30;;;7.10;99.90;;;;;;5020199;28;20227;-79
2022/10/10 05:48:56;;;;;;;8.88;6.65;;;7.20;99.90;;;;;;5019792;28;20207;-80
2022/10/10 05:51:23;;;;;;;12.18;5.38;;;7.20;99.90;;;;;;5019878;28;20219;-80
2022/10/10 05:53:51;;;;;;;9.48;6.63;;;7.20;99.90;;;;;;5019691;28;20216;-79
2022/10/10 05:56:27;;;;;;;7.53;5.70;;;7.10;99.90;;;;;;5019195;28;20310;-79
2022/10/10 05:58:54;;;;;;;10.13;5.10;;;7.20;99.90;;;;;;5019650;28;20231;-79
2022/10/10 06:01:20;;;;;;;14.48;6.60;;;7.20;99.90;;;;;;5019686;28;20704;-79
2022/10/10 06:03:51;;;;;;;7.20;5.22;;;7.20;99.90;;;;;;5022546;28;20632;-80
2022/10/10 06:06:18;;;;;;;11.88;5.40;;;7.20;99.90;;;;;;5025427;28;20321;-80
2022/10/10 06:08:45;;;;;;;9.40;5.07;;;7.20;99.90;;;;;;5025780;28;20211;-79
2022/10/10 06:11:14;;;;;;;9.65;5.43;;;7.20;99.90;;;;;;5021257;28;20202;-79
2022/10/10 06:13:41;;;;;;;11.20;5.03;;;7.30;99.90;;;;;;5019130;28;20211;-79
2022/10/10 06:16:08;;;;;;;6.28;4.70;;;7.30;99.90;;;;;;5019110;28;20224;-79
2022/10/10 06:18:34;;;;;;;7.28;4.60;;;7.40;99.90;;;;;;5018858;28;20211;-79
2022/10/10 06:21:02;;;;;;;8.40;4.65;;;7.40;99.90;;;;;;5019339;28;20277;-79
2022/10/10 06:23:29;;;;;;;7.95;4.85;;;7.50;99.90;;;;;;5018920;28;20204;-80
2022/10/10 06:25:55;;;;;;;8.88;4.75;;;7.60;99.90;;;;;;5018239;28;20235;-79
2022/10/10 06:28:23;;;;;;;5.93;5.47;;;7.50;99.90;;;;;;5020786;28;20208;-79
2022/10/10 06:30:51;;;;;;;8.20;6.05;;;7.50;99.90;;;;;;5018763;28;20208;-80
2022/10/10 06:33:19;;;;;;;11.85;5.78;;;7.50;99.90;;;;;;5018905;28;20203;-79
2022/10/10 06:35:47;;;;;;;6.57;5.38;;;7.40;99.90;;;;;;5019264;28;20639;-79
2022/10/10 06:38:15;;;;;;;7.75;5.05;;;7.40;99.90;;;;;;5019113;28;20251;-79
2022/10/10 06:40:43;;;;;;;8.20;6.03;;;7.30;99.90;;;;;;5022896;28;20223;-79
2022/10/10 06:43:12;;;;;;;8.65;5.45;;;7.40;99.90;;;;;;5022108;28;20466;-79
2022/10/10 06:45:42;;;;;;;7.47;4.97;;;7.40;99.90;;;;;;5019769;28;20376;-80
2022/10/10 06:48:09;;;;;;;11.57;6.25;;;7.50;99.90;;;;;;5021075;28;20438;-79
2022/10/10 06:50:37;;;;;;;7.03;5.75;;;7.50;99.90;;;;;;5040137;28;20234;-80
2022/10/10 06:53:04;;;;;;;8.50;5.68;;;7.70;99.90;;;;;;5040305;28;20208;-79
2022/10/10 06:55:31;;;;;;;5.00;4.50;;;7.70;99.90;;;;;;5039748;28;20220;-79
2022/10/10 06:57:58;;;;;;;9.82;5.45;;;7.90;99.90;;;;;;5040560;28;20195;-79
2022/10/10 07:00:25;;;;;;;5.17;4.67;;;7.90;99.90;;;;;;5030940;28;20211;-79
2022/10/10 07:02:53;;;;;;;5.57;5.07;;;8.10;99.90;;;;;;5027289;28;20443;-79
2022/10/10 07:05:19;;;;;;;9.03;5.70;;;8.20;71.50;;;;;;5025198;28;20445;-79
2022/10/10 07:07:46;;;;;;;6.30;4.60;;;8.20;1.00;;;;;;5024894;28;20504;-79
2022/10/10 07:10:15;;;;;;;7.27;4.97;;;8.30;1.00;;;;;;5024323;28;20426;-78
2022/10/10 07:12:41;;;;;;;7.23;5.00;;;8.30;1.00;;;;;;5024201;28;20426;-78
2022/10/10 07:15:09;;;;;;;6.93;5.07;;;8.70;1.00;;;;;;5018769;28;20451;-78
2022/10/10 07:17:36;;;;;;;14.57;5.10;;;8.50;99.90;;;;;;5017555;28;20476;-78
2022/10/10 07:20:04;;;;;;;6.95;4.50;;;8.40;99.90;;;;;;5015797;28;20443;-79
2022/10/10 07:22:31;;;;;;;5.47;4.30;;;8.50;99.90;;;;;;5016133;28;20262;-78
2022/10/10 07:24:58;;;;;;;5.20;4.27;;;8.80;99.90;;;;;;5015946;28;20903;-78
2022/10/10 07:27:24;;;;;;;8.73;5.00;;;8.60;99.90;;;;;;5015647;28;21077;-78
2022/10/10 07:29:51;;;;;;;5.93;5.20;;;8.70;1.00;;;;;;5016342;28;20458;-79
2022/10/10 07:32:18;;;;;;;11.37;4.47;;;8.70;1.00;;;;;;5016095;28;20523;-79
2022/10/10 07:34:44;;;;;;;5.57;4.17;;;8.80;26.10;;;;;;5015895;28;20454;-78
2022/10/10 07:37:12;;;;;;;9.03;4.57;;;8.90;99.90;;;;;;5019722;28;20944;-79
2022/10/10 07:39:39;;;;;;;4.23;3.83;;;8.90;1.00;;;;;;5026513;28;20842;-78
2022/10/10 07:42:06;;;;;;;9.03;4.40;;;9.00;1.00;;;;;;5018747;28;20443;-79
2022/10/10 07:44:32;;;;;;;6.27;4.33;;;9.20;1.00;;;;;;5018155;28;20451;-79
2022/10/10 07:46:59;;;;;;;8.30;5.17;;;9.20;99.90;;;;;;5018865;28;20483;-79
2022/10/10 07:49:26;;;;;;;7.57;4.83;;;9.20;99.90;;;;;;5018317;28;20456;-79
2022/10/10 07:51:53;;;;;;;5.53;4.17;;;9.30;99.90;;;;;;5018014;28;20448;-79
2022/10/10 07:54:22;;;;;;;5.63;4.20;;;9.30;1.00;;;;;;5017014;28;20933;-80
2022/10/10 07:56:48;;;;;;;9.03;5.47;;;9.30;1.00;;;;;;5018309;28;20474;-78
2022/10/10 07:59:15;;;;;;;6.07;5.00;;;9.40;1.00;;;;;;5016179;28;20835;-78
2022/10/10 08:01:42;;;;;;;6.47;5.00;;;9.50;1.00;;;;;;5016835;28;20498;-79
2022/10/10 08:04:08;;;;;;;7.50;5.33;;;9.50;1.00;;;;;;5017250;28;20492;-79
2022/10/10 08:06:35;;;;;;;14.23;4.00;;;9.60;99.90;;;;;;5016721;28;20466;-79
2022/10/10 08:09:02;;;;;;;10.53;4.63;;;9.60;99.90;;;;;;5017713;28;20497;-79
2022/10/10 08:11:30;;;;;;;10.03;4.97;;;9.60;1.00;;;;;;5019093;28;20452;-80
2022/10/10 08:13:56;;;;;;;8.37;5.73;;;9.60;99.90;;;;;;5024041;28;20447;-79
2022/10/10 08:16:24;;;;;;;8.73;4.10;;;9.70;99.90;;;;;;5025851;28;20466;-79
2022/10/10 08:18:51;;;;;;;6.90;4.97;;;9.80;99.90;;;;;;5025941;28;20443;-79
2022/10/10 08:21:18;;;;;;;5.83;3.90;;;9.90;99.90;;;;;;5022870;28;20471;-80
2022/10/10 08:23:45;;;;;;;8.17;5.27;;;9.90;99.90;;;;;;5019995;28;20467;-79
2022/10/10 08:26:14;;;;;;;9.60;6.87;;;9.90;21.90;;;;;;5018091;28;20877;-79
2022/10/10 08:28:42;;;;;;;8.40;5.23;;;10.00;91.80;;;;;;5016954;28;20958;-84
2022/10/10 08:31:12;;;;;;;6.60;4.43;;;10.10;1.00;;;;;;5019110;28;20422;-83
2022/10/10 08:33:39;;;;;;;7.57;4.40;;;10.20;1.00;;;;;;5019559;28;20422;-83
2022/10/10 08:36:07;;;;;;;7.03;4.87;;;10.20;1.00;;;;;;5018936;28;20434;-83
2022/10/10 08:38:34;;;;;;;4.10;3.50;;;10.30;1.00;;;;;;5026744;28;20426;-83
2022/10/10 08:41:06;;;;;;;7.80;4.20;;;10.30;1.00;;;;;;5035757;28;20439;-83
2022/10/10 08:43:39;;;;;;;5.37;3.40;;;10.40;1.00;;;;;;5035248;28;20524;-83
2022/10/10 08:46:14;;;;;;;4.80;3.70;;;10.40;1.00;;;;;;5026303;28;20539;-82
2022/10/10 08:48:41;;;;;;;4.13;3.67;;;10.60;1.00;;;;;;5020989;28;20920;-83
2022/10/10 08:51:14;;;;;;;6.67;4.53;;;10.60;1.00;;;;;;5019603;28;20451;-83
2022/10/10 08:53:44;;;;;;;4.37;3.67;;;10.70;99.90;;;;;;5019988;28;20442;-83
2022/10/10 08:56:16;;;;;;;7.00;4.27;;;10.70;99.90;;;;;;5019389;28;20453;-83
2022/10/10 08:58:48;;;;;;;7.97;3.60;;;10.80;1.00;;;;;;5019520;28;20486;-83
2022/10/10 09:01:20;;;;;;;6.60;3.70;;;10.80;1.00;;;;;;5018506;28;20455;-85
2022/10/10 09:03:49;;;;;;;5.10;3.67;;;10.80;99.90;;;;;;5017117;28;20436;-82
2022/10/10 09:06:34;;;;;;;9.50;3.60;;;10.90;99.90;;;;;;5019242;28;20442;-82
2022/10/10 09:09:13;;;;;;;5.40;4.00;;;10.90;99.90;;;;;;5019296;28;20815;-82
2022/10/10 09:11:52;;;;;;;3.90;3.10;;;11.00;1.00;;;;;;5019557;28;20451;-82
2022/10/10 09:14:32;;;;;;;6.90;3.63;;;11.40;1.00;;;;;;5019034;28;20509;-82
2022/10/10 09:17:05;;;;;;;7.03;5.13;;;11.20;99.90;;;;;;5020513;28;20839;-82
2022/10/10 09:19:42;;;;;;;6.50;5.10;;;11.30;1.00;;;;;;5016116;28;20845;-81
2022/10/10 09:22:13;;;;;;;8.57;3.90;;;11.40;99.90;;;;;;5018324;28;20403;-82
2022/10/10 09:24:45;;;;;;;7.10;3.90;;;11.50;99.90;;;;;;5017383;28;20431;-81
2022/10/10 09:27:16;;;;;;;7.50;4.23;;;11.60;99.90;;;;;;5041199;22;20495;-85
2022/10/10 09:29:48;;;;;;;5.80;3.97;;;11.60;99.90;;;;;;5025859;28;20428;-86
2022/10/10 09:32:20;;;;;;;4.50;4.07;;;11.80;1.00;;;;;;5026980;28;20427;-87
2022/10/10 09:34:50;;;;;;;8.50;3.63;;;11.70;99.90;;;;;;5028760;28;20425;-87
2022/10/10 09:37:21;;;;;;;6.47;4.07;;;12.10;1.00;;;;;;5035262;28;20463;-85
2022/10/10 09:39:52;;;;;;;6.90;3.80;;;12.20;1.00;;;;;;5037587;28;20413;-88
2022/10/10 09:42:26;;;;;;;6.80;5.30;;;12.00;99.90;;;;;;5034609;28;20434;-85
2022/10/10 09:44:53;;;;;;;7.03;4.20;;;12.30;1.00;;;;;;5029227;28;20458;-87
2022/10/10 09:47:21;;;;;;;4.40;4.00;;;12.20;99.90;;;;;;5029101;28;20490;-87
2022/10/10 09:49:48;;;;;;;5.50;4.80;;;12.30;99.90;;;;;;5027751;28;20422;-84
2022/10/10 09:52:24;;;;;;;8.10;3.87;;;12.30;99.90;;;;;;5028157;28;20447;-87
2022/10/10 09:54:55;;;;;;;4.27;3.40;;;12.50;99.90;;;;;;5018406;28;20436;-87
2022/10/10 09:57:28;;;;;;;4.17;3.73;;;12.80;99.90;;;;;;5016472;28;20563;-86
2022/10/10 09:59:56;;;;;;;3.93;3.20;;;12.70;87.90;;;;;;5017605;28;20435;-87
2022/10/10 10:05:23;;;;;;;6.73;4.07;;;12.80;96.20;;;;;;5026314;28;20440;-86
2022/10/10 10:07:51;;;;;;;3.77;3.47;;;12.80;93.30;;;;;;5026591;28;20442;-85
2022/10/10 10:10:22;;;;;;;4.30;3.90;;;12.80;75.90;;;;;;5023982;28;20533;-84
2022/10/10 10:12:50;;;;;;;16.03;3.30;;;12.90;99.90;;;;;;5028450;28;20410;-85
2022/10/10 10:15:20;;;;;;;8.53;4.40;;;13.00;99.90;;;;;;5025827;28;20847;-87
2022/10/10 10:18:11;;;;;;;4.03;3.60;;;13.00;99.90;;;;;;5026157;28;20480;-86
2022/10/10 10:20:41;;;;;;;5.40;3.90;;;13.20;99.90;;;;;;5021712;28;20432;-85
2022/10/10 10:23:23;;;;;;;4.03;3.73;;;13.30;1.00;;;;;;5022167;28;20425;-86
2022/10/10 10:25:58;;;;;;;6.33;3.80;;;13.20;1.00;;;;;;5019980;28;20537;-82
2022/10/10 10:28:25;;;;;;;6.33;3.80;;;13.30;1.00;;;;;;5020712;28;20506;-85
2022/10/10 10:30:54;;;;;;;5.53;3.87;;;13.40;1.00;;;;;;5020864;28;20513;-87
2022/10/10 10:33:34;;;;;;;7.50;5.37;;;13.30;1.00;;;;;;5021442;28;20418;-87
2022/10/10 10:36:08;;;;;;;10.10;4.00;;;13.40;1.00;;;;;;5022683;28;20893;-86
2022/10/10 10:38:42;;;;;;;4.83;3.93;;;13.60;99.90;;;;;;5023726;28;20427;-87
2022/10/10 10:41:15;;;;;;;4.47;3.10;;;13.40;1.00;;;;;;5022932;28;20976;-84
2022/10/10 10:44:03;;;;;;;4.67;3.90;;;13.30;33.80;;;;;;5022953;28;20443;-87
2022/10/10 10:46:47;;;;;;;5.87;3.50;;;13.30;1.00;;;;;;5021801;28;20541;-82
2022/10/10 10:49:21;;;;;;;6.00;3.67;;;13.30;5.00;;;;;;5021205;28;20851;-82
2022/10/10 10:52:09;;;;;;;8.80;3.97;;;13.30;8.60;;;;;;5019429;28;20431;-81
2022/10/10 10:54:49;;;;;;;5.83;3.40;;;13.30;1.00;;;;;;5013426;28;20455;-81
2022/10/10 10:57:24;;;;;;;4.73;3.50;;;13.30;1.00;;;;;;5025393;28;20554;-79
2022/10/10 11:00:00;;;;;;;5.17;3.67;;;13.40;1.00;;;;;;5029480;28;20391;-81
2022/10/10 11:02:42;;;;;;;6.60;4.10;;;13.60;44.30;;;;;;5027225;28;20439;-83
2022/10/10 11:05:42;;;;;;;5.63;4.20;;;13.70;45.20;;;;;;5032438;28;20522;-82
2022/10/10 11:08:32;;;;;;;5.10;3.93;;;13.90;1.00;;;;;;5032548;28;20485;-82
2022/10/10 11:11:13;;;;;;;4.00;3.70;;;13.90;1.00;;;;;;5031210;28;20439;-81
2022/10/10 11:13:43;;;;;;;5.23;3.60;;;14.00;1.00;;;;;;5030266;28;20486;-83
2022/10/10 11:16:17;;;;;;;4.88;3.33;;;14.30;99.90;;;;;;5028293;28;20425;-83
2022/10/10 11:18:51;;;;;;;13.67;9.23;;;14.50;22.80;;;;;;5025957;28;20185;-82
2022/10/10 11:21:21;;;;;;;6.10;4.60;;;14.30;19.30;;;;;;5023712;28;20436;-82
2022/10/10 11:23:55;;;;;;;14.27;7.30;;;14.30;1.00;;;;;;5023424;28;20451;-82
2022/10/10 11:26:25;;;;;;;5.00;4.53;;;14.40;1.00;;;;;;5022190;28;20506;-82
2022/10/10 11:28:57;;;;;;;7.23;5.00;;;14.70;99.90;;;;;;5023972;28;20474;-80
2022/10/10 11:31:30;;;;;;;7.33;3.90;;;14.70;1.00;;;;;;5030769;28;20437;-81
2022/10/10 11:34:02;;;;;;;24.30;16.90;;;14.60;1.00;;;;;;5033245;28;20468;-81
2022/10/10 11:36:31;;;;;;;22.00;15.03;;;14.80;99.90;;;;;;5025807;28;20533;-83
2022/10/10 11:39:05;;;;;;;9.73;7.70;;;14.70;1.00;;;;;;5021981;28;20451;-83
2022/10/10 11:41:35;;;;;;;4.20;3.23;;;14.80;1.00;;;;;;5021329;28;20432;-81
2022/10/10 11:44:08;;;;;;;16.10;10.73;;;14.70;99.90;;;;;;5035924;28;20427;-82
2022/10/10 11:46:40;;;;;;;10.60;8.17;;;14.90;1.00;;;;;;5040131;28;20472;-82
2022/10/10 11:49:14;;;;;;;6.43;4.87;;;15.00;1.00;;;;;;5039986;28;20476;-81
2022/10/10 11:52:00;;;;;;;7.67;5.97;;;15.10;1.00;;;;;;5022057;28;20437;-82
2022/10/10 11:54:36;;;;;;;5.10;4.30;;;15.10;1.00;;;;;;5022406;28;20440;-82
2022/10/10 11:57:12;;;;;;;5.17;4.43;;;15.20;8.90;;;;;;5021399;28;20869;-82
2022/10/10 11:59:44;;;;;;;6.53;4.10;;;15.30;1.00;;;;;;5021371;28;20402;-82
2022/10/10 12:02:18;;;;;;;30.63;19.80;;;15.30;1.00;;;;;;5020900;28;20444;-81
2022/10/10 12:04:45;;;;;;;4.77;4.27;;;15.40;1.00;;;;;;5021419;28;20462;-81
2022/10/10 12:07:19;;;;;;;7.83;6.40;;;15.40;1.00;;;;;;5021041;28;20421;-82
2022/10/10 12:09:51;;;;;;;5.07;4.57;;;15.40;1.00;;;;;;5023195;28;20434;-83
2022/10/10 12:12:21;;;;;;;8.27;4.67;;;15.40;1.00;;;;;;5025817;28;20423;-81
2022/10/10 12:14:53;;;;;;;3.30;3.00;;;15.50;1.00;;;;;;5026349;28;20486;-81
2022/10/10 12:17:24;;;;;;;22.63;15.97;;;15.60;1.00;;;;;;5026460;28;20471;-82
2022/10/10 12:19:51;;;;;;;12.33;8.20;;;15.50;1.00;;;;;;5026321;28;20420;-82
2022/10/10 12:22:24;;;;;;;5.10;3.93;;;15.60;1.00;;;;;;5021626;28;20443;-82
2022/10/10 12:25:35;;;;;;;7.50;5.43;;;15.60;1.00;;;;;;5022261;28;20799;-87
2022/10/10 12:28:05;;;;;;;13.87;4.80;;;15.60;1.00;;;;;;5022145;28;20489;-85
2022/10/10 12:30:32;;;;;;;6.43;5.80;;;;;;;;;;5033618;28;21024;-84
2022/10/10 12:33:02;;;;;;;6.13;5.13;;;15.80;1.00;;;;;;5023973;28;20437;-84
2022/10/10 12:35:33;;;;;;;25.73;20.67;;;15.70;99.90;;;;;;5022779;28;20833;-83
2022/10/10 12:38:21;;;;;;;6.63;5.80;;;16.40;99.90;;;;;;5022329;28;20519;-86
2022/10/10 12:41:10;;;;;;;6.63;4.73;;;15.90;1.00;;;;;;5022116;28;20462;-85
2022/10/10 12:43:41;;;;;;;26.63;17.40;;;15.90;1.00;;;;;;5020988;28;20436;-86
2022/10/10 12:46:30;;;;;;;18.10;12.60;;;15.70;99.90;;;;;;5021636;28;20479;-86
2022/10/10 12:49:01;;;;;;;23.47;14.87;;;15.80;1.00;;;;;;5019223;28;20487;-85
2022/10/10 12:51:29;;;;;;;8.87;7.10;;;15.40;1.00;;;;;;5023229;28;20448;-85
2022/10/10 12:53:59;;;;;;;15.47;8.70;;;15.90;1.00;;;;;;5022028;28;20485;-85
2022/10/10 12:56:40;;;;;;;12.67;8.63;;;15.90;1.00;;;;;;5022634;28;20505;-86
2022/10/10 12:59:18;;;;;;;11.77;8.20;;;15.90;1.00;;;;;;5021263;28;20443;-86
2022/10/10 13:01:49;;;;;;;18.37;12.87;;;15.80;1.00;;;;;;5030903;28;20436;-85
2022/10/10 13:04:27;;;;;;;17.67;11.27;;;15.90;1.00;;;;;;5030395;28;20428;-85
2022/10/10 13:06:56;;;;;;;8.60;4.97;;;15.90;1.00;;;;;;5030806;28;20463;-85
2022/10/10 13:09:25;;;;;;;12.70;8.23;;;15.90;1.00;;;;;;5031738;28;20484;-86
2022/10/10 13:11:57;;;;;;;9.10;5.30;;;15.90;1.00;;;;;;5023526;28;20455;-86
2022/10/10 13:14:25;;;;;;;6.72;4.32;;;15.80;97.20;;;;;;5023917;28;20442;-85